« Back
NWS Peachtree City, Ga » Text Product » CSG Terminal Aerodrome Forecast


Printer-friendly Version
Current Version              Previous Versions:   1  2  3  4  5  6  7  8  9  

Terminal Aerodrome Forecast

052
FTUS42 KFFC 261120
TAFCSG
TAF
KCSG 261120Z 2612/2712 14003KT P6SM SCT100
     FM261600 22006KT P6SM SCT045
      TEMPO 2619/2623 4SM -TSRA BKN035CB
     FM270200 20003KT P6SM FEW050 SCT250=



USA.gov is the U.S. government's official web portal to all federal, state and local government web resources and services.